createdAt,value
2019-02-22T00:00:38.450Z,100651.20
2019-02-22T00:03:40.419Z,100650.11
2019-02-22T00:06:42.423Z,100651.17
2019-02-22T00:09:49.506Z,100655.80
2019-02-22T00:12:48.293Z,100650.08
2019-02-22T00:15:50.348Z,100651.44
2019-02-22T00:18:52.547Z,100649.25
2019-02-22T00:21:54.503Z,100647.33
2019-02-22T00:24:56.476Z,100654.19
2019-02-22T00:27:58.476Z,100648.70
2019-02-22T00:31:00.376Z,100654.19
2019-02-22T00:34:02.370Z,100652.03
2019-02-22T00:37:04.292Z,100650.15
2019-02-22T00:40:06.281Z,100651.83
2019-02-22T00:43:08.220Z,100652.11
2019-02-22T00:46:10.145Z,100653.83
2019-02-22T00:49:12.117Z,100653.83
2019-02-22T00:52:14.041Z,100656.25
2019-02-22T00:55:15.983Z,100656.84
2019-02-22T00:58:17.937Z,100658.48
2019-02-22T01:01:19.878Z,100651.98
2019-02-22T01:04:21.919Z,100659.18
2019-02-22T01:07:24.519Z,100653.66
2019-02-22T01:10:31.152Z,100662.43
2019-02-22T01:13:30.343Z,100650.95
2019-02-22T01:16:32.304Z,100659.48
2019-02-22T01:19:34.362Z,100655.72
2019-02-22T01:22:36.518Z,100654.05
2019-02-22T01:25:38.425Z,100655.66
2019-02-22T01:28:40.374Z,100654.52
2019-02-22T01:31:42.223Z,100659.18
2019-02-22T01:34:44.160Z,100661.95
2019-02-22T01:37:46.074Z,100665.55
2019-02-22T01:40:47.985Z,100658.98
2019-02-22T01:43:49.886Z,100665.62
2019-02-22T01:46:51.750Z,100663.67
2019-02-22T01:49:53.905Z,100666.45
2019-02-22T01:52:55.859Z,100673.34
2019-02-22T01:55:57.859Z,100670.63
2019-02-22T01:59:00.311Z,100671.73
2019-02-22T02:02:02.321Z,100671.73
2019-02-22T02:05:05.611Z,100673.09
2019-02-22T02:08:07.649Z,100681.63
2019-02-22T02:11:09.546Z,100686.08
2019-02-22T02:14:11.507Z,100683.89
2019-02-22T02:17:13.514Z,100691.05
2019-02-22T02:20:16.259Z,100695.20
2019-02-22T02:23:18.259Z,100693.22
2019-02-22T02:26:20.188Z,100692.64
2019-02-22T02:29:22.192Z,100690.72
2019-02-22T02:32:24.116Z,100692.33
2019-02-22T02:35:26.101Z,100698.87
2019-02-22T02:38:28.180Z,100702.64
2019-02-22T02:41:30.186Z,100698.87
2019-02-22T02:44:32.208Z,100695.58
2019-02-22T02:47:34.144Z,100700.23
2019-02-22T02:50:36.150Z,100706.78
2019-02-22T02:53:38.075Z,100717.20
2019-02-22T02:56:40.003Z,100718.53
2019-02-22T02:59:41.980Z,100717.63
2019-02-22T03:02:45.236Z,100725.23
2019-02-22T03:05:51.912Z,100720.53
2019-02-22T03:08:53.850Z,100729.54
2019-02-22T03:11:55.884Z,100735.18
2019-02-22T03:14:57.831Z,100730.16
2019-02-22T03:17:59.838Z,100738.11
2019-02-22T03:21:01.996Z,100747.16
2019-02-22T03:24:03.942Z,100761.66
2019-02-22T03:27:05.927Z,100769.25
2019-02-22T03:30:09.781Z,100791.44
2019-02-22T03:33:12.070Z,100804.08
2019-02-22T03:36:14.024Z,100805.28
2019-02-22T03:39:15.946Z,100823.53
2019-02-22T03:42:17.985Z,100825.21
2019-02-22T03:45:19.934Z,100829.86
2019-02-22T03:48:21.855Z,100838.40
2019-02-22T03:51:23.797Z,100847.90
2019-02-22T03:54:25.909Z,100858.02
2019-02-22T03:57:27.871Z,100866.69
2019-02-22T04:00:29.875Z,100868.99
2019-02-22T04:03:31.827Z,100872.20
2019-02-22T04:06:33.837Z,100884.06
2019-02-22T04:09:35.822Z,100878.31
2019-02-22T04:12:37.791Z,100894.56
2019-02-22T04:15:39.711Z,100908.56
2019-02-22T04:18:41.641Z,100917.79
2019-02-22T04:21:43.796Z,100919.48
2019-02-22T04:24:45.759Z,100929.34
2019-02-22T04:27:47.682Z,100934.34
2019-02-22T04:30:49.586Z,100951.77
2019-02-22T04:33:51.594Z,100951.78
2019-02-22T04:36:53.512Z,100969.53
2019-02-22T04:39:55.506Z,100968.28
2019-02-22T04:42:57.479Z,100982.09
2019-02-22T04:45:59.592Z,100995.39
2019-02-22T04:49:01.597Z,101014.09
2019-02-22T04:52:03.662Z,101024.13
2019-02-22T04:55:05.676Z,101049.38
2019-02-22T04:58:08.048Z,101049.31
2019-02-22T05:01:09.997Z,101070.27
2019-02-22T05:04:12.146Z,101111.95
2019-02-22T05:07:14.108Z,101100.61
2019-02-22T05:10:16.099Z,101102.20
2019-02-22T05:13:18.129Z,101122.72
2019-02-22T05:16:20.136Z,101135.73
2019-02-22T05:19:22.121Z,101158.47
2019-02-22T05:22:24.241Z,101179.31
2019-02-22T05:25:26.227Z,101177.56
2019-02-22T05:28:28.159Z,101177.24
2019-02-22T05:31:30.066Z,101197.11
2019-02-22T05:34:32.072Z,101214.34
2019-02-22T05:37:34.056Z,101210.04
2019-02-22T05:40:36.030Z,101237.29
2019-02-22T05:43:38.020Z,101254.34
2019-02-22T05:46:41.437Z,101266.98
2019-02-22T05:49:43.391Z,101282.27
2019-02-22T05:52:45.544Z,101288.17
2019-02-22T05:55:47.493Z,101289.27
2019-02-22T05:58:49.420Z,101303.53
2019-02-22T06:01:51.349Z,101338.58
2019-02-22T06:04:53.269Z,101346.04
2019-02-22T06:07:55.164Z,101355.37
2019-02-22T06:10:57.037Z,101371.93
2019-02-22T06:13:59.054Z,101372.02
2019-02-22T06:17:01.006Z,101383.66
2019-02-22T06:20:09.081Z,101389.44
2019-02-22T06:23:11.158Z,101415.36
2019-02-22T06:26:13.122Z,101418.02
2019-02-22T06:29:15.044Z,101414.97
2019-02-22T06:32:16.964Z,101422.48
2019-02-22T06:35:18.875Z,101448.17
2019-02-22T06:38:20.830Z,101463.56
2019-02-22T06:41:22.729Z,101463.86
2019-02-22T06:44:24.713Z,101468.98
2019-02-22T06:47:28.405Z,101482.47
2019-02-22T06:53:34.466Z,101505.23
2019-02-22T06:56:36.492Z,101518.88
2019-02-22T06:59:38.388Z,101540.77
2019-02-22T07:02:40.385Z,101564.05
2019-02-22T07:05:42.321Z,101587.72
2019-02-22T07:08:44.328Z,101594.33
2019-02-22T07:11:50.558Z,101591.23
2019-02-22T07:14:52.519Z,101598.60
2019-02-22T07:17:54.506Z,101603.89
2019-02-22T07:20:56.439Z,101615.62
2019-02-22T07:23:58.646Z,101635.94
2019-02-22T07:27:00.568Z,101632.56
2019-02-22T07:30:04.272Z,101647.61
2019-02-22T07:33:06.191Z,101663.77
2019-02-22T07:36:08.170Z,101665.48
2019-02-22T07:39:10.131Z,101677.30
2019-02-22T07:42:12.103Z,101680.69
2019-02-22T07:45:14.039Z,101682.42
2019-02-22T07:48:16.125Z,101694.50
2019-02-22T07:51:18.201Z,101712.83
2019-02-22T07:54:20.243Z,101720.28
2019-02-22T07:57:22.202Z,101745.33
2019-02-22T08:00:24.677Z,101729.57
2019-02-22T08:03:26.560Z,101738.90
2019-02-22T08:06:28.525Z,101743.57
2019-02-22T08:09:30.444Z,101738.45
2019-02-22T08:12:32.503Z,101757.59
2019-02-22T08:15:35.397Z,101764.44
2019-02-22T08:18:37.871Z,101787.69
2019-02-22T08:21:39.862Z,101790.09
2019-02-22T08:24:42.029Z,101809.42
2019-02-22T08:27:53.150Z,101808.41
2019-02-22T08:30:47.898Z,101816.08
2019-02-22T08:33:49.844Z,101836.99
2019-02-22T08:36:51.885Z,101836.39
2019-02-22T08:39:58.520Z,101852.38
2019-02-22T08:42:59.079Z,101843.05
2019-02-22T08:46:01.054Z,101867.97
2019-02-22T08:49:03.564Z,101865.22
2019-02-22T08:52:05.728Z,101879.91
2019-02-22T08:55:07.746Z,101921.98
2019-02-22T08:58:09.811Z,101899.80
2019-02-22T09:01:11.708Z,101902.97
2019-02-22T09:04:13.718Z,101916.04
2019-02-22T09:07:15.634Z,101941.55
2019-02-22T09:10:17.513Z,101929.77
2019-02-22T09:13:19.478Z,101948.19
2019-02-22T09:16:21.427Z,101952.36
2019-02-22T09:19:23.407Z,101965.87
2019-02-22T09:22:25.306Z,101967.75
2019-02-22T09:25:27.510Z,101970.56
2019-02-22T09:28:29.489Z,101988.87
2019-02-22T09:31:31.439Z,101982.36
2019-02-22T09:34:33.397Z,101999.47
2019-02-22T09:37:35.356Z,102023.84
2019-02-22T09:40:37.323Z,102013.76
2019-02-22T09:43:39.334Z,102018.23
2019-02-22T09:46:41.273Z,102009.37
2019-02-22T09:49:43.664Z,102021.86
2019-02-22T09:52:45.544Z,102020.98
2019-02-22T09:55:47.554Z,102023.72
2019-02-22T09:58:50.361Z,102016.86
2019-02-22T10:01:52.318Z,102040.88
2019-02-22T10:04:55.605Z,102047.59
2019-02-22T10:07:57.975Z,102047.03
2019-02-22T10:10:59.939Z,102058.31
2019-02-22T10:14:06.628Z,102057.30
2019-02-22T10:17:05.799Z,102053.59
2019-02-22T10:20:10.888Z,102056.30
2019-02-22T10:23:12.840Z,102061.09
2019-02-22T10:26:15.005Z,102064.13
2019-02-22T10:29:16.962Z,102062.11
2019-02-22T10:32:18.899Z,102074.30
2019-02-22T10:35:20.889Z,102052.80
2019-02-22T10:38:22.866Z,102063.10
2019-02-22T10:41:24.838Z,102074.26
2019-02-22T10:44:26.785Z,102066.45
2019-02-22T10:47:28.740Z,102066.47
2019-02-22T10:50:31.601Z,102076.45
2019-02-22T10:53:33.528Z,102078.95
2019-02-22T10:56:35.638Z,102099.45
2019-02-22T10:59:37.596Z,102089.66
2019-02-22T11:02:39.642Z,102126.44
2019-02-22T11:05:41.601Z,102098.45
2019-02-22T11:08:43.514Z,102104.03
2019-02-22T11:11:45.495Z,102105.04
2019-02-22T11:14:47.456Z,102109.46
2019-02-22T11:17:49.376Z,102111.66
2019-02-22T11:20:51.384Z,102116.22
2019-02-22T11:23:53.292Z,102114.51
2019-02-22T11:26:55.579Z,102116.22
2019-02-22T11:29:57.579Z,102110.09
2019-02-22T11:32:59.516Z,102117.84
2019-02-22T11:36:01.474Z,102127.14
2019-02-22T11:39:05.528Z,102126.82
2019-02-22T11:42:08.787Z,102126.98
2019-02-22T11:45:11.024Z,102131.98
2019-02-22T11:48:12.942Z,102153.22
2019-02-22T11:51:15.898Z,102141.52
2019-02-22T11:54:17.804Z,102165.98
2019-02-22T11:57:20.207Z,102153.83
2019-02-22T12:00:26.092Z,102161.45
2019-02-22T12:03:28.106Z,102154.83
2019-02-22T12:06:30.058Z,102162.94
2019-02-22T12:09:31.962Z,102176.16
2019-02-22T12:12:33.874Z,102179.88
2019-02-22T12:15:35.834Z,102188.05
2019-02-22T12:18:38.104Z,102189.10
2019-02-22T12:21:40.062Z,102199.79
2019-02-22T12:24:42.024Z,102207.11
2019-02-22T12:27:44.034Z,102205.70
2019-02-22T12:30:45.980Z,102211.77
2019-02-22T12:33:48.208Z,102204.64
2019-02-22T12:36:50.388Z,102205.99
2019-02-22T12:39:52.413Z,102206.31
2019-02-22T12:42:54.358Z,102205.69
2019-02-22T12:45:56.404Z,102215.16
2019-02-22T12:48:58.328Z,102217.55
2019-02-22T12:52:00.713Z,102210.11
2019-02-22T12:55:04.769Z,102211.80
2019-02-22T12:58:06.830Z,102220.27
2019-02-22T13:01:08.716Z,102210.28
2019-02-22T13:04:10.732Z,102216.71
2019-02-22T13:07:13.830Z,102217.55
2019-02-22T13:10:16.258Z,102216.92
2019-02-22T13:13:18.252Z,102217.09
2019-02-22T13:16:20.281Z,102228.97
2019-02-22T13:19:22.280Z,102239.67
2019-02-22T13:22:24.306Z,102241.70
2019-02-22T13:25:26.238Z,102253.73
2019-02-22T13:28:28.401Z,102271.36
2019-02-22T13:31:30.567Z,102255.77
2019-02-22T13:34:32.543Z,102256.13
2019-02-22T13:37:34.497Z,102259.33
2019-02-22T13:40:36.498Z,102262.08
2019-02-22T13:43:38.443Z,102263.59
2019-02-22T13:46:40.449Z,102274.27
2019-02-22T13:49:42.496Z,102274.95
2019-02-22T13:52:45.281Z,102278.02
2019-02-22T13:55:47.436Z,102279.88
2019-02-22T13:58:49.543Z,102306.50
2019-02-22T14:01:52.975Z,102296.47
2019-02-22T14:04:55.574Z,102304.96
2019-02-22T14:07:57.562Z,102307.00
2019-02-22T14:10:59.591Z,102305.13
2019-02-22T14:14:01.683Z,102312.42
2019-02-22T14:17:03.847Z,102313.59
2019-02-22T14:20:07.089Z,102324.60
2019-02-22T14:23:09.155Z,102325.26
2019-02-22T14:26:11.126Z,102331.20
2019-02-22T14:29:13.334Z,102335.26
2019-02-22T14:32:15.301Z,102332.73
2019-02-22T14:35:17.444Z,102344.91
2019-02-22T14:38:19.489Z,102357.27
2019-02-22T14:41:21.579Z,102349.10
2019-02-22T14:44:23.758Z,102353.68
2019-02-22T14:47:25.919Z,102370.13
2019-02-22T14:50:27.874Z,102372.83
2019-02-22T14:53:30.432Z,102378.87
2019-02-22T14:56:32.447Z,102389.72
2019-02-22T14:59:34.597Z,102372.80
2019-02-22T15:02:36.763Z,102371.27
2019-02-22T15:05:38.863Z,102384.22
2019-02-22T15:08:40.838Z,102391.98
2019-02-22T15:11:43.836Z,102396.73
2019-02-22T15:14:45.969Z,102392.63
2019-02-22T15:17:49.725Z,102398.05
2019-02-22T15:20:51.843Z,102405.47
2019-02-22T15:23:53.999Z,102412.23
2019-02-22T15:26:56.063Z,102408.97
2019-02-22T15:29:58.354Z,102424.69
2019-02-22T15:33:00.362Z,102427.52
2019-02-22T15:36:02.491Z,102422.42
2019-02-22T15:39:05.110Z,102432.67
2019-02-22T15:42:08.965Z,102434.86
2019-02-22T15:45:16.457Z,102444.47
2019-02-22T15:48:18.475Z,102447.50
2019-02-22T15:51:20.489Z,102442.98
2019-02-22T15:54:22.425Z,102458.86
2019-02-22T15:57:25.202Z,102460.80
2019-02-22T16:00:32.503Z,102468.70
2019-02-22T16:03:39.226Z,102477.58
2019-02-22T16:06:41.288Z,102480.87
2019-02-22T16:09:43.459Z,102485.84
2019-02-22T16:12:45.776Z,102490.38
2019-02-22T16:15:48.566Z,102481.91
2019-02-22T16:18:50.565Z,102504.27
2019-02-22T16:21:52.581Z,102508.43
2019-02-22T16:24:54.963Z,102512.58
2019-02-22T16:27:56.870Z,102521.44
2019-02-22T16:31:00.103Z,102520.84
2019-02-22T16:34:02.068Z,102532.59
2019-02-22T16:37:04.034Z,102534.55
2019-02-22T16:40:08.832Z,102538.10
2019-02-22T16:43:12.652Z,102541.05
2019-02-22T16:46:15.134Z,102547.26
2019-02-22T16:49:17.336Z,102548.02
2019-02-22T16:52:19.304Z,102561.14
2019-02-22T16:55:23.351Z,102563.25
2019-02-22T16:58:25.490Z,102558.31
2019-02-22T17:01:28.217Z,102572.73
2019-02-22T17:04:30.239Z,102568.26
2019-02-22T17:07:33.095Z,102575.42
2019-02-22T17:10:37.015Z,102579.63
2019-02-22T17:13:39.953Z,102588.36
2019-02-22T17:16:46.078Z,102609.74
2019-02-22T17:19:47.320Z,102612.89
2019-02-22T17:22:51.225Z,102624.31
2019-02-22T17:25:53.145Z,102618.36
2019-02-22T17:28:55.165Z,102624.88
2019-02-22T17:31:57.334Z,102622.09
2019-02-22T17:35:01.250Z,102632.83
2019-02-22T17:38:03.808Z,102633.61
2019-02-22T17:41:06.191Z,102637.44
2019-02-22T17:44:08.165Z,102639.06
2019-02-22T17:47:12.642Z,102647.44
2019-02-22T17:50:14.880Z,102650.42
2019-02-22T17:53:16.957Z,102652.05
2019-02-22T17:56:18.956Z,102661.67
2019-02-22T17:59:20.854Z,102665.37
2019-02-22T18:02:24.704Z,102670.81
2019-02-22T18:05:28.077Z,102671.94
2019-02-22T18:08:30.845Z,102677.23
2019-02-22T18:11:32.789Z,102679.86
2019-02-22T18:14:34.809Z,102688.30
2019-02-22T18:17:36.768Z,102685.38
2019-02-22T18:20:39.022Z,102689.56
2019-02-22T18:23:41.201Z,102695.23
2019-02-22T18:26:45.984Z,102686.34
2019-02-22T18:29:48.212Z,102698.64
2019-02-22T18:32:50.567Z,102701.26
2019-02-22T18:35:52.947Z,102706.92
2019-02-22T18:38:56.834Z,102706.92
2019-02-22T18:41:59.118Z,102711.70
2019-02-22T18:45:03.166Z,102715.89
2019-02-22T18:48:06.138Z,102722.25
2019-02-22T18:51:09.960Z,102730.26
2019-02-22T18:54:12.333Z,102730.02
2019-02-22T18:57:14.347Z,102734.22
2019-02-22T19:00:20.298Z,102747.22
2019-02-22T19:03:25.087Z,102748.69
2019-02-22T19:06:27.067Z,102759.62
2019-02-22T19:09:29.049Z,102760.34
2019-02-22T19:12:32.422Z,102768.93
2019-02-22T19:15:35.616Z,102773.84
2019-02-22T19:18:40.971Z,102773.02
2019-02-22T19:21:43.283Z,102786.02
2019-02-22T19:24:45.266Z,102790.58
2019-02-22T19:27:47.250Z,102789.88
2019-02-22T19:30:49.201Z,102795.14
2019-02-22T19:33:51.321Z,102803.57
2019-02-22T19:36:55.772Z,102800.17
2019-02-22T19:40:01.910Z,102801.28
2019-02-22T19:43:06.259Z,102807.42
2019-02-22T19:46:08.199Z,102807.44
2019-02-22T19:49:10.157Z,102812.44
2019-02-22T19:52:12.750Z,102816.23
2019-02-22T19:55:19.106Z,102819.19
2019-02-22T19:58:26.703Z,102819.44
2019-02-22T20:01:29.363Z,102826.55
2019-02-22T20:04:31.406Z,102834.88
2019-02-22T20:07:34.043Z,102831.06
2019-02-22T20:10:41.525Z,102834.66
2019-02-22T20:13:44.881Z,102843.82
2019-02-22T20:16:48.639Z,102849.06
2019-02-22T20:19:52.578Z,102855.95
2019-02-22T20:22:54.535Z,102856.91
2019-02-22T20:25:58.576Z,102862.53
2019-02-22T20:29:00.460Z,102870.26
2019-02-22T20:32:02.747Z,102866.47
2019-02-22T20:35:09.485Z,102869.77
2019-02-22T20:38:11.639Z,102874.55
2019-02-22T20:41:13.576Z,102879.67
2019-02-22T20:44:15.564Z,102888.24
2019-02-22T20:47:17.564Z,102890.33
2019-02-22T20:50:23.158Z,102900.34
2019-02-22T20:53:25.809Z,102900.95
2019-02-22T20:56:29.217Z,102906.58
2019-02-22T20:59:32.441Z,102918.42
2019-02-22T21:02:34.435Z,102923.95
2019-02-22T21:05:36.412Z,102921.70
2019-02-22T21:08:38.409Z,102920.25
2019-02-22T21:11:40.454Z,102918.66
2019-02-22T21:14:44.322Z,102926.61
2019-02-22T21:17:48.270Z,102937.11
2019-02-22T21:20:50.258Z,102935.61
2019-02-22T21:23:52.183Z,102938.44
2019-02-22T21:26:54.123Z,102942.22
2019-02-22T21:29:58.995Z,102940.12
2019-02-22T21:33:05.170Z,102946.09
2019-02-22T21:36:07.904Z,102948.07
2019-02-22T21:39:09.918Z,102948.43
2019-02-22T21:42:19.838Z,102952.11
2019-02-22T21:45:16.365Z,102951.36
2019-02-22T21:48:27.279Z,102956.38
2019-02-22T21:51:22.717Z,102955.63
2019-02-22T21:54:24.647Z,102957.07
2019-02-22T21:57:26.636Z,102956.22
2019-02-22T22:00:29.518Z,102963.77
2019-02-22T22:03:31.517Z,102973.41
2019-02-22T22:06:33.523Z,102972.92
2019-02-22T22:09:40.490Z,102987.71
2019-02-22T22:12:44.023Z,102984.27
2019-02-22T22:15:46.082Z,102996.13
2019-02-22T22:18:48.083Z,102993.45
2019-02-22T22:21:50.004Z,102998.46
2019-02-22T22:24:52.038Z,102998.07
2019-02-22T22:27:54.539Z,102988.53
2019-02-22T22:30:56.444Z,102997.32
2019-02-22T22:33:58.398Z,103005.72
2019-02-22T22:37:00.429Z,103009.22
2019-02-22T22:40:02.569Z,103012.63
2019-02-22T22:43:04.564Z,103008.69
2019-02-22T22:46:06.550Z,103016.98
2019-02-22T22:49:08.570Z,103012.42
2019-02-22T22:52:10.530Z,103016.45
2019-02-22T22:55:12.523Z,103024.02
2019-02-22T22:58:14.484Z,103026.48
2019-02-22T23:01:17.270Z,103018.64
2019-02-22T23:04:19.475Z,103023.30
2019-02-22T23:07:21.452Z,103018.91
2019-02-22T23:10:23.387Z,103024.74
2019-02-22T23:13:25.458Z,103038.80
2019-02-22T23:16:27.577Z,103033.65
2019-02-22T23:19:29.503Z,103044.39
2019-02-22T23:22:31.462Z,103046.81
2019-02-22T23:25:33.384Z,103048.61
2019-02-22T23:28:35.358Z,103047.27
2019-02-22T23:31:37.350Z,103050.94
2019-02-22T23:34:39.281Z,103060.92
2019-02-22T23:37:41.249Z,103047.49
2019-02-22T23:40:43.260Z,103045.79
2019-02-22T23:43:45.183Z,103057.12
2019-02-22T23:46:47.140Z,103060.16
2019-02-22T23:49:49.386Z,103060.47
2019-02-22T23:52:51.292Z,103068.38
2019-02-22T23:55:53.171Z,103071.29
2019-02-22T23:58:55.149Z,103068.33
